KPCW

Erie-Ottawa International Airport

Port Clinton, Ohio, USA
METAR KPCW 252155Z AUTO 23007KT 10SM CLR 30/11 A2983 RMK AO2
Observed Flight Rules
May-25 @ 21:55 UTC (34 minutes ago) Visual Flight Rules
Wind Visibility Clouds
230° at 7 knots 10 miles
  • Clear skies
Temperatures Readings
Current 30°C / 86°F
Dewpoint 11°C / 52°F
Humidity 31%
Altimeter 29.83" Hg
Pressure 1010 hPa
Elevation 178
METAR KPCW 252155Z AUTO 23007KT 10SM CLR 30/11 A2983 RMK AO2
Observed Flight Rules
May-25 @ 21:55 UTC
(34 minutes ago)
VFR
Wind Visibility
230° at 7 knots 10 miles
Clouds
  • Clear skies
Temperature Dewpoint
30°C / 86°F 11°C / 52°F
Humidity Altimeter Pressure
31% 29.83" Hg 1010 hPa